New Preston Marble Dale, Connecticut
Current Conditions -  °F | °C
As of 3:48 PM on Friday 31 Oct 2014 (Local Time) from KOXC Reporting Station
Overcast Overcast  
Wind Chill: 10°   Ceiling: 3600
Heat Index: 10°   Visibility: 10mi
Dew Point:   Wind: 6mph
Humidity: 58%   Direction: 60°ENE
Pressure: 29.92"   Gusts: NA
Location:  41.69°N, 73.35°W
Report Text: KOXC 311948Z 06005KT 10SM OVC036 10/02 A2992
Loading
Personal Weather Stations






























Interactive Weather Map
Tropical Storm Tracking
New forecast layout! Learn more

10-Day Weather Forecast

Advertisements
Track Severe Weather on mobile